createdAt,value
2022-08-25T04:45:54.345Z,19.91
2022-08-25T04:46:55.223Z,19.91
2022-08-25T04:47:55.307Z,19.87
2022-08-25T04:48:55.203Z,19.87
2022-08-25T04:49:55.218Z,19.87
2022-08-25T04:50:55.191Z,19.86
2022-08-25T04:51:55.175Z,19.91
2022-08-25T04:52:55.165Z,19.91
2022-08-25T04:53:55.187Z,19.88
2022-08-25T04:54:55.144Z,19.91
2022-08-25T04:55:55.140Z,19.91
2022-08-25T04:56:58.426Z,19.91
2022-08-25T04:57:55.113Z,19.87
2022-08-25T04:58:55.113Z,19.88
2022-08-25T04:59:55.092Z,19.87
2022-08-25T05:00:55.130Z,19.88
2022-08-25T05:01:55.078Z,19.87
2022-08-25T05:02:55.052Z,19.86
2022-08-25T05:03:55.072Z,19.86
2022-08-25T05:04:55.045Z,19.87
2022-08-25T05:05:55.020Z,19.91
2022-08-25T05:06:55.020Z,19.91
2022-08-25T05:07:55.000Z,19.94
2022-08-25T05:08:55.010Z,19.95
2022-08-25T05:09:54.985Z,19.99
2022-08-25T05:10:54.964Z,19.98
2022-08-25T05:11:54.987Z,19.99
2022-08-25T05:12:54.942Z,20.02
2022-08-25T05:13:54.963Z,20.02
2022-08-25T05:14:54.922Z,20.01
2022-08-25T05:15:54.918Z,19.99
2022-08-25T05:16:54.924Z,20.02
2022-08-25T05:17:56.132Z,20.03
2022-08-25T05:18:54.899Z,20.06
2022-08-25T05:19:54.873Z,20.08
2022-08-25T05:20:54.857Z,20.10
2022-08-25T05:21:54.860Z,20.13
2022-08-25T05:22:54.837Z,20.11
2022-08-25T05:23:54.854Z,20.11
2022-08-25T05:24:54.821Z,20.14
2022-08-25T05:25:54.810Z,20.17
2022-08-25T05:26:54.799Z,20.16
2022-08-25T05:27:54.798Z,20.16
2022-08-25T05:28:54.796Z,20.14
2022-08-25T05:29:54.842Z,20.17
2022-08-25T05:30:54.746Z,20.20
2022-08-25T05:31:54.804Z,20.21
2022-08-25T05:32:54.735Z,20.24
2022-08-25T05:33:54.746Z,20.28
2022-08-25T05:34:54.742Z,20.31
2022-08-25T05:35:54.708Z,20.36
2022-08-25T05:36:54.718Z,20.39
2022-08-25T05:37:54.690Z,20.43
2022-08-25T05:38:54.697Z,20.48
2022-08-25T05:39:54.712Z,20.54
2022-08-25T05:40:54.650Z,20.55
2022-08-25T05:41:54.711Z,20.57
2022-08-25T05:42:54.703Z,20.57
2022-08-25T05:43:54.641Z,20.59
2022-08-25T05:44:54.698Z,20.64
2022-08-25T05:45:54.707Z,20.67
2022-08-25T05:46:54.633Z,20.72
2022-08-25T05:47:54.687Z,20.70
2022-08-25T05:48:54.623Z,20.69
2022-08-25T05:49:54.598Z,20.73
2022-08-25T05:50:54.571Z,20.79
2022-08-25T05:51:54.549Z,20.82
2022-08-25T05:52:54.561Z,20.88
2022-08-25T05:53:54.532Z,20.89
2022-08-25T05:54:54.524Z,20.94
2022-08-25T05:55:54.515Z,20.95
2022-08-25T05:56:54.489Z,20.95
2022-08-25T05:57:54.464Z,21.04
2022-08-25T05:58:54.487Z,21.06
2022-08-25T05:59:54.468Z,21.09
2022-08-25T06:00:54.580Z,21.14
2022-08-25T06:01:54.477Z,21.22
2022-08-25T06:02:54.523Z,21.24
2022-08-25T06:03:54.652Z,21.25
2022-08-25T06:04:54.448Z,21.29
2022-08-25T06:05:54.423Z,21.34
2022-08-25T06:06:54.431Z,21.42
2022-08-25T06:07:54.430Z,21.42
2022-08-25T06:08:54.396Z,21.43
2022-08-25T06:09:54.355Z,21.44
2022-08-25T06:10:54.359Z,21.49
2022-08-25T06:11:55.371Z,21.52
2022-08-25T06:12:54.339Z,21.58
2022-08-25T06:13:54.337Z,21.59
2022-08-25T06:14:54.301Z,21.62
2022-08-25T06:15:54.306Z,21.68
2022-08-25T06:16:54.279Z,21.68
2022-08-25T06:17:58.959Z,21.74
2022-08-25T06:18:54.276Z,21.80
2022-08-25T06:19:54.247Z,21.84
2022-08-25T06:20:54.253Z,21.90
2022-08-25T06:21:54.239Z,21.92
2022-08-25T06:22:54.221Z,22.02
2022-08-25T06:23:54.221Z,21.99
2022-08-25T06:24:54.200Z,22.07
2022-08-25T06:25:54.192Z,22.12
2022-08-25T06:26:54.177Z,22.20
2022-08-25T06:27:54.169Z,22.24
2022-08-25T06:28:54.183Z,22.27
2022-08-25T06:29:56.028Z,22.36
2022-08-25T06:30:54.144Z,22.42
2022-08-25T06:31:54.198Z,22.46
2022-08-25T06:32:54.123Z,22.52
2022-08-25T06:33:54.100Z,22.58
2022-08-25T06:34:54.119Z,22.68
2022-08-25T06:35:54.076Z,22.75
2022-08-25T06:36:54.075Z,22.85
2022-08-25T06:37:54.069Z,22.92
2022-08-25T06:38:54.048Z,23.01
2022-08-25T06:39:54.120Z,23.07
2022-08-25T06:40:54.027Z,23.12
2022-08-25T06:41:54.024Z,23.19
2022-08-25T06:42:54.011Z,23.19
2022-08-25T06:43:57.516Z,23.16
2022-08-25T06:44:54.012Z,23.23
2022-08-25T06:45:53.997Z,23.28
2022-08-25T06:46:54.016Z,23.33
2022-08-25T06:47:53.951Z,23.35
2022-08-25T06:48:53.945Z,23.39
2022-08-25T06:49:53.943Z,23.40
2022-08-25T06:50:53.920Z,23.50
2022-08-25T06:51:53.912Z,23.58
2022-08-25T06:52:53.901Z,23.61
2022-08-25T06:53:53.890Z,23.68
2022-08-25T06:54:53.976Z,23.73
2022-08-25T06:55:53.868Z,23.79
2022-08-25T06:56:53.862Z,23.87
2022-08-25T06:57:53.850Z,23.90
2022-08-25T06:58:53.841Z,23.94
2022-08-25T06:59:53.841Z,23.94
2022-08-25T07:00:53.859Z,24.02
2022-08-25T07:01:53.896Z,24.05
2022-08-25T07:02:53.803Z,24.06
2022-08-25T07:03:53.782Z,24.09
2022-08-25T07:04:53.810Z,24.10
2022-08-25T07:05:53.762Z,24.15
2022-08-25T07:06:53.751Z,24.21
2022-08-25T07:07:53.742Z,24.30
2022-08-25T07:08:53.733Z,24.37
2022-08-25T07:09:53.761Z,24.46
2022-08-25T07:10:53.713Z,24.55
2022-08-25T07:11:53.699Z,24.57
2022-08-25T07:12:53.688Z,24.64
2022-08-25T07:13:53.681Z,24.67
2022-08-25T07:15:10.089Z,24.68
2022-08-25T07:15:53.703Z,24.69
2022-08-25T07:16:53.650Z,24.69
2022-08-25T07:17:53.641Z,24.73
2022-08-25T07:18:53.630Z,24.71
2022-08-25T07:19:57.400Z,24.76
2022-08-25T07:20:53.611Z,24.77
2022-08-25T07:21:53.589Z,24.83
2022-08-25T07:22:53.610Z,24.84
2022-08-25T07:23:53.574Z,24.83
2022-08-25T07:24:53.605Z,24.98
2022-08-25T07:25:53.579Z,25.06
2022-08-25T07:26:53.568Z,25.14
2022-08-25T07:27:58.219Z,25.18
2022-08-25T07:28:53.559Z,25.18
2022-08-25T07:29:53.534Z,25.23
2022-08-25T07:30:53.548Z,25.30
2022-08-25T07:31:53.565Z,25.32
2022-08-25T07:32:54.993Z,25.35
2022-08-25T07:33:53.491Z,25.40
2022-08-25T07:34:53.499Z,25.39
2022-08-25T07:35:53.459Z,25.39
2022-08-25T07:36:53.445Z,25.47
2022-08-25T07:37:53.724Z,25.60
2022-08-25T07:38:53.438Z,25.62
2022-08-25T07:39:53.493Z,25.73
2022-08-25T07:40:53.525Z,25.82
2022-08-25T07:41:53.419Z,25.88
2022-08-25T07:42:53.388Z,25.90
2022-08-25T07:43:53.369Z,25.91
2022-08-25T07:44:53.401Z,25.94
2022-08-25T07:45:53.382Z,26.01
2022-08-25T07:46:53.673Z,26.13
2022-08-25T07:47:53.341Z,26.17
2022-08-25T07:48:53.581Z,26.21
2022-08-25T07:49:53.297Z,26.20
2022-08-25T07:50:53.314Z,26.09
2022-08-25T07:52:04.322Z,26.09
2022-08-25T07:52:55.054Z,26.17
2022-08-25T07:53:53.263Z,26.30
2022-08-25T07:54:53.257Z,26.48
2022-08-25T07:55:53.593Z,26.75
2022-08-25T07:56:53.242Z,27.10
2022-08-25T07:57:56.074Z,27.44
2022-08-25T07:58:53.218Z,27.85
2022-08-25T07:59:53.196Z,28.40
2022-08-25T08:00:53.202Z,29.04
2022-08-25T08:01:53.229Z,29.39
2022-08-25T08:02:53.199Z,29.60
2022-08-25T08:03:53.265Z,29.82
2022-08-25T08:04:53.158Z,30.29
2022-08-25T08:05:53.145Z,31.01
2022-08-25T08:06:53.123Z,31.58
2022-08-25T08:07:53.143Z,31.53
2022-08-25T08:08:54.865Z,31.89
2022-08-25T08:10:00.450Z,32.47
2022-08-25T08:11:04.249Z,33.07
2022-08-25T08:11:54.317Z,33.35
2022-08-25T08:12:53.055Z,33.39
2022-08-25T08:13:53.039Z,33.53
2022-08-25T08:14:53.095Z,33.76
2022-08-25T08:15:53.084Z,34.12
2022-08-25T08:16:53.024Z,34.19
2022-08-25T08:17:53.005Z,33.78
2022-08-25T08:18:53.001Z,33.79
2022-08-25T08:19:52.991Z,33.07
2022-08-25T08:20:53.070Z,32.69
2022-08-25T08:21:52.988Z,33.28
2022-08-25T08:22:53.054Z,33.66
2022-08-25T08:23:58.072Z,33.95
2022-08-25T08:24:54.169Z,34.32
2022-08-25T08:25:52.974Z,34.65
2022-08-25T08:26:58.685Z,33.81
2022-08-25T08:27:55.119Z,33.45
2022-08-25T08:28:52.903Z,33.04
2022-08-25T08:29:52.886Z,32.43
2022-08-25T08:30:53.992Z,33.28
2022-08-25T08:31:52.897Z,33.86
2022-08-25T08:33:09.115Z,33.22
2022-08-25T08:33:52.906Z,32.67
2022-08-25T08:34:52.836Z,32.77
2022-08-25T08:35:52.841Z,32.81
2022-08-25T08:36:52.843Z,32.60
2022-08-25T08:37:53.967Z,32.78
2022-08-25T08:38:52.845Z,33.35
2022-08-25T08:39:52.877Z,33.94
2022-08-25T08:40:52.833Z,34.03
2022-08-25T08:42:11.246Z,33.86
2022-08-25T08:42:52.829Z,34.21
2022-08-25T08:43:52.825Z,34.69
2022-08-25T08:44:52.794Z,34.34
2022-08-25T08:45:53.661Z,33.90
2022-08-25T08:46:52.768Z,33.03
2022-08-25T08:47:52.705Z,33.12
2022-08-25T08:48:52.743Z,33.12
2022-08-25T08:49:52.732Z,33.01
2022-08-25T08:50:52.711Z,33.45
2022-08-25T08:51:52.718Z,33.34
2022-08-25T08:52:52.704Z,33.87
2022-08-25T08:53:52.739Z,34.24
2022-08-25T08:54:52.683Z,34.56
2022-08-25T08:55:53.084Z,34.92
2022-08-25T08:56:52.664Z,35.37
2022-08-25T08:57:52.709Z,35.75
2022-08-25T08:58:52.635Z,35.19
2022-08-25T08:59:52.626Z,35.45
2022-08-25T09:00:52.693Z,35.68
2022-08-25T09:01:54.350Z,34.88
2022-08-25T09:02:52.652Z,33.28
2022-08-25T09:03:55.268Z,32.85
2022-08-25T09:04:52.574Z,33.44
2022-08-25T09:05:52.561Z,34.24
2022-08-25T09:06:52.513Z,34.77
2022-08-25T09:07:54.822Z,34.39
2022-08-25T09:08:52.506Z,34.27
2022-08-25T09:09:52.500Z,34.62
2022-08-25T09:10:52.717Z,34.50
2022-08-25T09:11:52.466Z,33.93
2022-08-25T09:13:52.450Z,34.24
2022-08-25T09:14:53.936Z,33.79
2022-08-25T09:15:52.441Z,34.53
2022-08-25T09:16:52.432Z,33.73
2022-08-25T09:17:54.870Z,34.16
2022-08-25T09:18:52.495Z,34.75
2022-08-25T09:19:52.373Z,34.65
2022-08-25T09:20:52.420Z,34.75
2022-08-25T09:21:52.359Z,34.94
2022-08-25T09:22:52.405Z,34.62
2022-08-25T09:23:52.344Z,35.34
2022-08-25T09:24:52.385Z,35.78
2022-08-25T09:25:54.093Z,36.27
2022-08-25T09:26:52.371Z,36.27
2022-08-25T09:27:52.325Z,36.46
2022-08-25T09:28:52.315Z,35.90
2022-08-25T09:29:52.325Z,36.03
2022-08-25T09:30:52.372Z,34.53
2022-08-25T09:31:52.303Z,34.19
2022-08-25T09:32:52.764Z,34.00
2022-08-25T09:33:52.281Z,34.12
2022-08-25T09:34:52.267Z,34.27
2022-08-25T09:35:53.727Z,34.37
2022-08-25T09:36:52.270Z,34.89
2022-08-25T09:37:52.234Z,34.88
2022-08-25T09:38:52.233Z,34.64
2022-08-25T09:39:52.257Z,35.28
2022-08-25T09:40:52.216Z,35.97
2022-08-25T09:41:52.207Z,35.47
2022-08-25T09:42:58.051Z,35.38
2022-08-25T09:43:52.150Z,34.81
2022-08-25T09:44:52.149Z,34.58
2022-08-25T09:45:52.217Z,34.61
2022-08-25T09:46:52.161Z,34.85
2022-08-25T09:47:52.110Z,34.94
2022-08-25T09:48:56.606Z,35.11
2022-08-25T09:49:52.089Z,35.77
2022-08-25T09:50:52.109Z,35.34
2022-08-25T09:51:52.778Z,35.60
2022-08-25T09:52:53.566Z,35.34
2022-08-25T09:53:52.092Z,34.88
2022-08-25T09:54:52.090Z,34.82
2022-08-25T09:55:52.025Z,35.44
2022-08-25T09:56:52.077Z,35.96
2022-08-25T09:57:52.887Z,36.23
2022-08-25T09:58:52.032Z,36.17
2022-08-25T09:59:55.665Z,36.66
2022-08-25T10:00:52.003Z,37.22
2022-08-25T10:01:52.174Z,37.51
2022-08-25T10:02:51.967Z,36.53
2022-08-25T10:03:52.090Z,35.81
2022-08-25T10:04:52.001Z,35.94
2022-08-25T10:05:56.132Z,36.59
2022-08-25T10:06:52.007Z,36.53
2022-08-25T10:07:52.165Z,35.97
2022-08-25T10:08:51.917Z,36.03
2022-08-25T10:09:51.889Z,35.53
2022-08-25T10:10:51.917Z,35.93
2022-08-25T10:11:51.915Z,36.69
2022-08-25T10:12:51.906Z,35.07
2022-08-25T10:13:51.924Z,34.24
2022-08-25T10:14:51.867Z,34.49
2022-08-25T10:15:51.858Z,35.26
2022-08-25T10:16:51.874Z,36.31
2022-08-25T10:17:51.852Z,36.22
2022-08-25T10:18:51.835Z,36.22
2022-08-25T10:19:51.839Z,36.31
2022-08-25T10:20:51.806Z,36.95
2022-08-25T10:21:51.819Z,37.13
2022-08-25T10:22:51.789Z,37.50
2022-08-25T10:23:51.766Z,37.21
2022-08-25T10:24:51.767Z,37.62
2022-08-25T10:25:57.900Z,37.37
2022-08-25T10:26:51.754Z,37.60
2022-08-25T10:27:51.739Z,37.07
2022-08-25T10:28:51.707Z,36.88
2022-08-25T10:29:51.709Z,35.52
2022-08-25T10:30:51.729Z,34.92
2022-08-25T10:31:51.708Z,35.65
2022-08-25T10:32:51.667Z,36.34
2022-08-25T10:33:51.665Z,36.94
2022-08-25T10:34:52.622Z,37.09
2022-08-25T10:35:51.650Z,36.81
2022-08-25T10:36:51.648Z,36.88
2022-08-25T10:37:51.637Z,36.51
2022-08-25T10:38:51.608Z,36.75
2022-08-25T10:39:55.433Z,36.94
2022-08-25T10:40:51.609Z,36.12
2022-08-25T10:41:53.463Z,36.73
2022-08-25T10:42:51.570Z,36.71
2022-08-25T10:43:51.561Z,36.60
2022-08-25T10:44:51.561Z,36.84
2022-08-25T10:45:51.620Z,37.07
2022-08-25T10:46:51.546Z,37.03
2022-08-25T10:47:51.532Z,37.17
2022-08-25T10:48:51.509Z,37.84
2022-08-25T10:49:51.508Z,38.32
2022-08-25T10:50:51.490Z,37.13
2022-08-25T10:51:51.594Z,36.78
2022-08-25T10:52:51.475Z,36.57
2022-08-25T10:53:51.469Z,37.02
2022-08-25T10:54:51.454Z,36.81
2022-08-25T10:55:51.444Z,37.56
2022-08-25T10:56:53.184Z,37.66
2022-08-25T10:57:51.426Z,38.15
2022-08-25T10:58:51.424Z,38.46
2022-08-25T10:59:51.410Z,37.97
2022-08-25T11:00:51.397Z,38.40
2022-08-25T11:01:53.671Z,38.30
2022-08-25T11:02:51.378Z,37.51
2022-08-25T11:03:51.376Z,36.88
2022-08-25T11:04:51.388Z,36.88
2022-08-25T11:05:51.354Z,37.36
2022-08-25T11:06:54.613Z,38.15
2022-08-25T11:07:51.332Z,38.60
2022-08-25T11:08:51.320Z,37.64
2022-08-25T11:09:51.316Z,37.47
2022-08-25T11:10:51.296Z,38.11
2022-08-25T11:11:51.307Z,37.47
2022-08-25T11:12:51.282Z,36.84
2022-08-25T11:13:51.271Z,36.50
2022-08-25T11:14:51.255Z,36.39
2022-08-25T11:16:15.504Z,36.64
2022-08-25T11:16:51.386Z,37.49
2022-08-25T11:17:51.246Z,37.88
2022-08-25T11:18:51.219Z,37.24
2022-08-25T11:19:51.218Z,37.06
2022-08-25T11:20:51.204Z,37.75
2022-08-25T11:21:51.215Z,37.88
2022-08-25T11:22:51.187Z,37.82
2022-08-25T11:23:51.179Z,37.20
2022-08-25T11:24:51.165Z,37.85
2022-08-25T11:25:51.155Z,38.18
2022-08-25T11:26:51.153Z,37.46
2022-08-25T11:27:51.157Z,37.78
2022-08-25T11:28:51.121Z,37.43
2022-08-25T11:29:51.118Z,37.56
2022-08-25T11:30:51.148Z,37.66
2022-08-25T11:31:53.567Z,37.46
2022-08-25T11:32:51.084Z,36.88
2022-08-25T11:33:51.085Z,37.21
2022-08-25T11:34:51.060Z,36.90
2022-08-25T11:35:51.060Z,37.32
2022-08-25T11:36:51.064Z,37.55
2022-08-25T11:37:51.042Z,37.74
2022-08-25T11:38:51.031Z,38.28
2022-08-25T11:39:51.037Z,38.69
2022-08-25T11:40:51.008Z,38.99
2022-08-25T11:41:51.002Z,38.00
2022-08-25T11:42:51.000Z,36.59
2022-08-25T11:43:50.987Z,37.03
2022-08-25T11:44:53.676Z,37.40
2022-08-25T11:45:54.056Z,36.47
2022-08-25T11:46:50.952Z,36.53
2022-08-25T11:47:50.963Z,36.60
2022-08-25T11:48:50.932Z,36.28
2022-08-25T11:49:50.937Z,36.13
2022-08-25T11:50:50.932Z,36.75
2022-08-25T11:51:50.916Z,36.87
2022-08-25T11:52:50.980Z,36.90
2022-08-25T11:53:50.883Z,36.51
2022-08-25T11:54:50.875Z,36.65
2022-08-25T11:55:51.077Z,36.59
2022-08-25T11:56:50.856Z,36.88
2022-08-25T11:57:53.435Z,37.74
2022-08-25T11:58:50.832Z,37.84
2022-08-25T11:59:50.830Z,37.25
2022-08-25T12:00:50.847Z,37.27
2022-08-25T12:01:50.810Z,37.44
2022-08-25T12:02:50.803Z,37.31
2022-08-25T12:03:51.024Z,37.43
2022-08-25T12:04:50.910Z,38.00
2022-08-25T12:05:50.870Z,38.61
2022-08-25T12:06:50.756Z,38.75
2022-08-25T12:07:50.761Z,38.60
2022-08-25T12:08:50.731Z,38.63
2022-08-25T12:09:50.753Z,38.35
2022-08-25T12:10:50.713Z,37.81
2022-08-25T12:11:50.744Z,36.43
2022-08-25T12:12:50.709Z,36.66
2022-08-25T12:13:50.859Z,36.75
2022-08-25T12:14:50.673Z,37.36
2022-08-25T12:15:50.663Z,36.81
2022-08-25T12:16:50.691Z,37.09
2022-08-25T12:17:50.664Z,36.78
2022-08-25T12:18:50.669Z,37.09
2022-08-25T12:19:50.625Z,36.95
2022-08-25T12:20:50.618Z,36.53
2022-08-25T12:21:50.605Z,36.43
2022-08-25T12:22:50.606Z,37.00
2022-08-25T12:23:53.244Z,37.18
2022-08-25T12:24:50.577Z,36.98
2022-08-25T12:25:50.566Z,37.69
2022-08-25T12:26:50.554Z,38.34
2022-08-25T12:27:50.561Z,38.81
2022-08-25T12:28:50.536Z,38.31
2022-08-25T12:29:50.527Z,37.81
2022-08-25T12:30:50.856Z,37.56
2022-08-25T12:31:50.507Z,37.22
2022-08-25T12:32:50.505Z,35.92
2022-08-25T12:33:50.486Z,35.52
2022-08-25T12:34:50.479Z,35.74
2022-08-25T12:35:50.467Z,35.75
2022-08-25T12:36:50.461Z,36.27
2022-08-25T12:37:50.464Z,36.99
2022-08-25T12:38:52.018Z,37.09
2022-08-25T12:39:50.583Z,36.75
2022-08-25T12:40:50.418Z,36.80
2022-08-25T12:41:50.452Z,37.06
2022-08-25T12:42:50.407Z,36.54
2022-08-25T12:43:50.395Z,36.62
2022-08-25T12:44:50.379Z,36.54
2022-08-25T12:45:50.493Z,37.34
2022-08-25T12:46:50.360Z,37.51
2022-08-25T12:47:50.368Z,37.24
2022-08-25T12:48:50.345Z,37.59
2022-08-25T12:49:50.332Z,38.37
2022-08-25T12:50:50.326Z,38.78
2022-08-25T12:51:50.317Z,37.82
2022-08-25T12:52:50.323Z,37.79
2022-08-25T12:53:50.294Z,37.94
2022-08-25T12:54:50.277Z,37.91
2022-08-25T12:55:50.275Z,37.59
2022-08-25T12:56:50.250Z,38.07
2022-08-25T12:57:50.251Z,38.22
2022-08-25T12:59:00.183Z,38.07
2022-08-25T12:59:50.243Z,38.04
2022-08-25T13:00:52.875Z,38.28
2022-08-25T13:01:50.357Z,37.98
2022-08-25T13:02:52.021Z,37.27
2022-08-25T13:03:50.228Z,37.05
2022-08-25T13:04:50.187Z,36.16
2022-08-25T13:05:50.184Z,36.27
2022-08-25T13:06:50.166Z,36.09
2022-08-25T13:07:50.166Z,36.20
2022-08-25T13:08:50.167Z,36.01
2022-08-25T13:09:50.141Z,35.90
2022-08-25T13:10:50.122Z,34.81
2022-08-25T13:11:50.124Z,33.98
2022-08-25T13:12:50.110Z,34.13
2022-08-25T13:13:50.115Z,34.27
2022-08-25T13:14:50.088Z,34.09
2022-08-25T13:15:54.905Z,33.57
2022-08-25T13:16:50.110Z,33.60
2022-08-25T13:17:50.067Z,34.15
2022-08-25T13:18:51.402Z,34.91
2022-08-25T13:19:50.054Z,35.38
2022-08-25T13:20:50.036Z,36.05
2022-08-25T13:21:50.024Z,36.64
2022-08-25T13:22:51.827Z,37.03
2022-08-25T13:23:50.022Z,37.25
2022-08-25T13:24:50.689Z,37.28
2022-08-25T13:25:50.002Z,37.34
2022-08-25T13:26:49.976Z,37.06
2022-08-25T13:27:49.972Z,37.20
2022-08-25T13:28:50.450Z,37.00
2022-08-25T13:29:49.952Z,36.34
2022-08-25T13:30:49.950Z,36.41
2022-08-25T13:31:50.031Z,36.62
2022-08-25T13:32:49.925Z,35.97
2022-08-25T13:33:49.927Z,34.80
2022-08-25T13:35:49.930Z,34.69
2022-08-25T13:36:54.344Z,34.09
2022-08-25T13:37:49.878Z,34.03
2022-08-25T13:38:49.898Z,34.22
2022-08-25T13:39:58.683Z,34.31
2022-08-25T13:40:49.949Z,34.37
2022-08-25T13:41:49.839Z,33.91
2022-08-25T13:42:55.457Z,33.60
2022-08-25T13:43:49.839Z,33.73
2022-08-25T13:44:53.666Z,33.69
2022-08-25T13:45:50.549Z,33.78
2022-08-25T13:46:49.779Z,33.57
2022-08-25T13:47:49.775Z,33.68
2022-08-25T13:48:50.109Z,33.72
2022-08-25T13:49:49.753Z,33.84
2022-08-25T13:50:52.146Z,33.63
2022-08-25T13:51:49.762Z,33.65
2022-08-25T13:52:49.721Z,33.57
2022-08-25T13:53:49.736Z,33.26
2022-08-25T13:54:49.707Z,33.31
2022-08-25T13:55:51.593Z,33.51
2022-08-25T13:56:49.692Z,33.19
2022-08-25T13:57:49.680Z,33.19
2022-08-25T13:58:49.677Z,33.41
2022-08-25T13:59:49.658Z,33.49
2022-08-25T14:00:49.644Z,33.63
2022-08-25T14:01:50.241Z,33.75
2022-08-25T14:02:50.104Z,33.73
2022-08-25T14:03:49.651Z,33.86
2022-08-25T14:04:51.820Z,33.81
2022-08-25T14:05:49.598Z,33.38
2022-08-25T14:06:49.592Z,33.04
2022-08-25T14:08:03.735Z,33.21
2022-08-25T14:08:49.583Z,33.53
2022-08-25T14:09:49.617Z,33.57
2022-08-25T14:10:49.539Z,33.71
2022-08-25T14:11:49.551Z,33.54
2022-08-25T14:12:49.745Z,33.54
2022-08-25T14:13:49.552Z,33.47
2022-08-25T14:14:49.507Z,33.39
2022-08-25T14:15:49.504Z,33.32
2022-08-25T14:16:49.630Z,33.32
2022-08-25T14:17:49.533Z,33.42
2022-08-25T14:18:49.495Z,33.23
2022-08-25T14:19:49.476Z,33.14
2022-08-25T14:20:49.453Z,33.09
2022-08-25T14:21:49.617Z,32.89
2022-08-25T14:22:49.425Z,33.04
2022-08-25T14:23:49.451Z,33.18
2022-08-25T14:24:49.421Z,32.93
2022-08-25T14:25:49.403Z,32.88
2022-08-25T14:26:54.128Z,32.92
2022-08-25T14:28:49.370Z,32.78
2022-08-25T14:29:52.659Z,32.72
2022-08-25T14:30:49.358Z,32.67
2022-08-25T14:31:49.482Z,32.77
2022-08-25T14:32:50.956Z,32.63
2022-08-25T14:33:50.081Z,32.48
2022-08-25T14:34:49.324Z,32.63
2022-08-25T14:35:49.301Z,32.63
2022-08-25T14:36:49.289Z,32.62
2022-08-25T14:37:49.285Z,32.57
2022-08-25T14:38:55.016Z,32.57
2022-08-25T14:39:49.341Z,32.50
2022-08-25T14:40:49.244Z,32.55
2022-08-25T14:41:52.484Z,32.60
2022-08-25T14:42:49.230Z,32.56
2022-08-25T14:43:49.220Z,32.67
2022-08-25T14:44:49.222Z,32.72
2022-08-25T14:45:49.236Z,32.81
2022-08-25T14:46:49.187Z,32.81
2022-08-25T14:47:49.670Z,32.88
2022-08-25T14:48:49.451Z,32.81
2022-08-25T14:49:49.170Z,32.87
2022-08-25T14:50:49.148Z,32.93
2022-08-25T14:51:49.139Z,32.82
2022-08-25T14:52:51.955Z,32.62
2022-08-25T14:53:49.119Z,32.57
2022-08-25T14:54:49.125Z,32.66
2022-08-25T14:55:49.099Z,32.60
2022-08-25T14:56:49.116Z,32.63
2022-08-25T14:57:49.080Z,32.77
2022-08-25T14:58:51.565Z,32.84
2022-08-25T14:59:49.084Z,32.88
2022-08-25T15:00:49.200Z,33.00
2022-08-25T15:01:50.166Z,33.07
2022-08-25T15:02:49.040Z,33.04
2022-08-25T15:03:49.094Z,32.97
2022-08-25T15:04:51.882Z,32.84
2022-08-25T15:05:48.996Z,32.78
2022-08-25T15:06:49.000Z,32.79
2022-08-25T15:07:48.967Z,32.75
2022-08-25T15:08:48.976Z,32.85
2022-08-25T15:09:48.975Z,32.94
2022-08-25T15:10:48.951Z,33.04
2022-08-25T15:11:50.631Z,33.00
2022-08-25T15:12:51.168Z,32.94
2022-08-25T15:13:49.791Z,33.00
2022-08-25T15:14:48.925Z,32.92
2022-08-25T15:15:52.698Z,32.96
2022-08-25T15:16:49.321Z,32.97
2022-08-25T15:17:49.480Z,32.89
2022-08-25T15:18:48.910Z,32.96
2022-08-25T15:19:48.871Z,32.94
2022-08-25T15:20:49.943Z,32.99
2022-08-25T15:21:48.840Z,33.01
2022-08-25T15:22:48.963Z,32.84
2022-08-25T15:23:51.035Z,32.74
2022-08-25T15:24:48.846Z,32.62
2022-08-25T15:25:48.804Z,32.60
2022-08-25T15:27:48.785Z,32.57
2022-08-25T15:28:48.780Z,32.52
2022-08-25T15:29:48.764Z,32.59
2022-08-25T15:30:48.770Z,32.74
2022-08-25T15:31:48.794Z,32.75
2022-08-25T15:32:48.830Z,32.72
2022-08-25T15:33:48.717Z,32.67
2022-08-25T15:34:48.716Z,32.65
2022-08-25T15:35:49.999Z,32.67
2022-08-25T15:36:48.702Z,32.70
2022-08-25T15:37:48.692Z,32.69
2022-08-25T15:38:48.676Z,32.59
2022-08-25T15:39:48.704Z,32.52
2022-08-25T15:40:48.673Z,32.44
2022-08-25T15:41:49.346Z,32.30
2022-08-25T15:42:48.688Z,32.41
2022-08-25T15:43:48.640Z,32.56
2022-08-25T15:44:53.140Z,32.78
2022-08-25T15:45:48.628Z,32.63
2022-08-25T15:46:49.978Z,32.51
2022-08-25T15:47:48.583Z,32.44
2022-08-25T15:48:48.621Z,32.26
2022-08-25T15:49:48.565Z,32.03
2022-08-25T15:50:48.568Z,32.10
2022-08-25T15:51:48.544Z,32.14
2022-08-25T15:52:48.759Z,32.07
2022-08-25T15:53:48.526Z,32.01
2022-08-25T15:54:48.520Z,32.01
2022-08-25T15:55:48.513Z,32.14
2022-08-25T15:56:48.503Z,32.22
2022-08-25T15:57:49.660Z,32.28
2022-08-25T15:58:49.970Z,32.35
2022-08-25T15:59:48.471Z,32.48
2022-08-25T16:00:56.237Z,32.29
2022-08-25T16:01:48.483Z,32.30
2022-08-25T16:02:48.452Z,32.26
2022-08-25T16:03:48.432Z,32.11
2022-08-25T16:04:48.429Z,32.03
2022-08-25T16:05:48.775Z,31.85
2022-08-25T16:06:48.405Z,31.89
2022-08-25T16:07:51.674Z,31.92
2022-08-25T16:08:48.386Z,31.86
2022-08-25T16:09:48.368Z,31.91
2022-08-25T16:10:48.388Z,31.84
2022-08-25T16:11:56.650Z,31.92
2022-08-25T16:12:48.402Z,32.06
2022-08-25T16:13:48.334Z,32.14
2022-08-25T16:14:48.336Z,32.07
2022-08-25T16:15:52.924Z,32.14
2022-08-25T16:16:48.316Z,32.28
2022-08-25T16:17:51.259Z,32.38
2022-08-25T16:18:48.292Z,32.44
2022-08-25T16:19:48.274Z,32.28
2022-08-25T16:20:48.285Z,32.08
2022-08-25T16:21:48.255Z,31.88
2022-08-25T16:22:48.252Z,31.91
2022-08-25T16:23:48.235Z,31.95
2022-08-25T16:24:48.235Z,31.99
2022-08-25T16:25:48.233Z,32.03
2022-08-25T16:26:48.837Z,32.00
2022-08-25T16:27:48.196Z,31.92
2022-08-25T16:28:48.190Z,31.91
2022-08-25T16:29:48.179Z,31.76
2022-08-25T16:30:50.250Z,31.63
2022-08-25T16:31:53.314Z,31.50
2022-08-25T16:32:48.160Z,31.47
2022-08-25T16:33:48.143Z,31.47
2022-08-25T16:34:48.134Z,31.46
2022-08-25T16:35:49.256Z,31.44
2022-08-25T16:36:48.110Z,31.39
2022-08-25T16:37:48.676Z,31.32
2022-08-25T16:38:48.952Z,31.31
2022-08-25T16:39:48.173Z,31.31
2022-08-25T16:40:48.094Z,31.32
2022-08-25T16:41:48.068Z,31.34
2022-08-25T16:42:48.057Z,31.34
2022-08-25T16:43:48.045Z,31.23
2022-08-25T16:44:48.043Z,31.13
2022-08-25T16:45:48.046Z,31.12
2022-08-25T16:46:48.179Z,31.12
2022-08-25T16:47:48.039Z,31.02
2022-08-25T16:48:48.001Z,31.04
2022-08-25T16:49:47.986Z,31.06
2022-08-25T16:50:47.995Z,31.06
2022-08-25T16:51:47.958Z,30.92
2022-08-25T16:52:47.959Z,30.98
2022-08-25T16:53:48.759Z,30.97
2022-08-25T16:54:47.938Z,31.02
2022-08-25T16:55:47.977Z,31.06
2022-08-25T16:56:47.920Z,30.98
2022-08-25T16:57:48.015Z,30.88
2022-08-25T16:58:47.898Z,30.83
2022-08-25T16:59:47.884Z,30.82
2022-08-25T17:00:47.924Z,30.84
2022-08-25T17:01:47.897Z,30.79
2022-08-25T17:02:47.860Z,30.73
2022-08-25T17:03:47.846Z,30.70
2022-08-25T17:04:47.837Z,30.79
2022-08-25T17:05:47.838Z,30.76
2022-08-25T17:06:51.949Z,30.67
2022-08-25T17:07:47.801Z,30.64
2022-08-25T17:08:47.801Z,30.60
2022-08-25T17:09:47.784Z,30.46
2022-08-25T17:10:47.790Z,30.39
2022-08-25T17:11:47.766Z,30.38
2022-08-25T17:12:47.754Z,30.39
2022-08-25T17:13:47.748Z,30.45
2022-08-25T17:14:47.739Z,30.43
2022-08-25T17:15:47.772Z,30.29
2022-08-25T17:16:47.714Z,30.27
2022-08-25T17:17:47.706Z,30.20
2022-08-25T17:18:48.095Z,30.13
2022-08-25T17:19:50.742Z,30.08
2022-08-25T17:20:47.700Z,30.05
2022-08-25T17:21:47.662Z,30.05
2022-08-25T17:22:47.655Z,30.01
2022-08-25T17:23:47.644Z,29.98
2022-08-25T17:24:53.396Z,29.94
2022-08-25T17:25:47.647Z,29.92
2022-08-25T17:26:47.617Z,29.90
2022-08-25T17:27:47.601Z,29.86
2022-08-25T17:28:47.593Z,29.86
2022-08-25T17:29:47.580Z,29.83
2022-08-25T17:30:47.590Z,29.76
2022-08-25T17:31:48.448Z,29.70
2022-08-25T17:32:47.559Z,29.64
2022-08-25T17:33:47.541Z,29.58
2022-08-25T17:34:47.534Z,29.52
2022-08-25T17:35:47.572Z,29.49
2022-08-25T17:36:47.515Z,29.49
2022-08-25T17:37:50.444Z,29.48
2022-08-25T17:38:47.499Z,29.41
2022-08-25T17:39:47.481Z,29.36
2022-08-25T17:40:47.528Z,29.36
2022-08-25T17:41:47.467Z,29.36